createdAt,value
2022-11-09T00:02:19.421Z,84.52
2022-11-09T00:04:46.007Z,84.58
2022-11-09T00:07:12.669Z,84.40
2022-11-09T00:09:39.517Z,84.39
2022-11-09T00:12:06.905Z,84.50
2022-11-09T00:14:34.062Z,85.19
2022-11-09T00:17:00.991Z,84.99
2022-11-09T00:19:27.522Z,84.96
2022-11-09T00:21:54.145Z,84.55
2022-11-09T00:24:20.718Z,84.62
2022-11-09T00:26:47.125Z,84.64
2022-11-09T00:29:13.747Z,84.58
2022-11-09T00:31:40.566Z,84.39
2022-11-09T00:34:07.055Z,84.33
2022-11-09T00:36:34.128Z,84.43
2022-11-09T00:39:01.009Z,84.43
2022-11-09T00:41:28.022Z,84.25
2022-11-09T00:43:55.515Z,84.03
2022-11-09T00:46:23.576Z,84.08
2022-11-09T00:48:50.812Z,84.24
2022-11-09T00:51:18.603Z,84.03
2022-11-09T00:53:47.705Z,83.96
2022-11-09T00:56:14.848Z,83.98
2022-11-09T00:58:41.894Z,83.97
2022-11-09T01:01:15.692Z,83.88
2022-11-09T01:03:44.366Z,83.81
2022-11-09T01:06:22.661Z,83.84
2022-11-09T01:08:49.926Z,83.70
2022-11-09T01:11:18.469Z,83.62
2022-11-09T01:13:45.607Z,83.64
2022-11-09T01:16:15.349Z,83.62
2022-11-09T01:18:41.958Z,83.53
2022-11-09T01:21:11.367Z,83.56
2022-11-09T01:23:39.040Z,83.70
2022-11-09T01:26:08.498Z,83.82
2022-11-09T01:28:35.723Z,83.69
2022-11-09T01:31:07.801Z,83.75
2022-11-09T01:33:35.402Z,83.35
2022-11-09T01:36:18.952Z,83.36
2022-11-09T01:38:46.239Z,83.27
2022-11-09T01:41:20.154Z,83.25
2022-11-09T01:44:13.798Z,83.27
2022-11-09T01:46:46.294Z,83.10
2022-11-09T01:49:22.985Z,83.21
2022-11-09T01:52:02.027Z,83.12
2022-11-09T01:54:36.216Z,83.18
2022-11-09T01:57:08.171Z,83.44
2022-11-09T01:59:40.726Z,83.48
2022-11-09T02:02:07.552Z,83.33
2022-11-09T02:04:43.256Z,83.43
2022-11-09T02:07:11.125Z,83.40
2022-11-09T02:10:02.927Z,83.41
2022-11-09T02:12:33.334Z,83.34
2022-11-09T02:15:03.582Z,83.45
2022-11-09T02:17:32.295Z,83.40
2022-11-09T02:19:59.397Z,83.51
2022-11-09T02:22:28.407Z,83.66
2022-11-09T02:24:56.436Z,83.69
2022-11-09T02:27:23.787Z,83.66
2022-11-09T02:29:52.801Z,83.71
2022-11-09T02:32:22.338Z,83.74
2022-11-09T02:34:49.303Z,83.69
2022-11-09T02:37:30.359Z,83.74
2022-11-09T02:40:00.037Z,83.86
2022-11-09T02:42:26.752Z,83.78
2022-11-09T02:44:57.960Z,83.90
2022-11-09T02:47:24.816Z,83.91
2022-11-09T02:49:51.574Z,83.94
2022-11-09T02:52:19.772Z,84.04
2022-11-09T02:54:47.060Z,84.21
2022-11-09T02:57:14.558Z,84.25
2022-11-09T02:59:42.053Z,84.16
2022-11-09T03:02:09.116Z,84.46
2022-11-09T03:04:35.651Z,84.66
2022-11-09T03:07:02.452Z,84.57
2022-11-09T03:09:29.259Z,84.76
2022-11-09T03:11:56.372Z,84.74
2022-11-09T03:14:22.938Z,84.90
2022-11-09T03:16:53.538Z,84.87
2022-11-09T03:19:19.994Z,84.78
2022-11-09T03:21:48.583Z,84.83
2022-11-09T03:35:50.873Z,84.56
2022-11-09T03:38:18.178Z,84.37
2022-11-09T03:40:44.915Z,84.67
2022-11-09T03:43:12.012Z,84.83
2022-11-09T03:45:39.016Z,84.76
2022-11-09T03:48:05.666Z,84.86
2022-11-09T03:50:34.741Z,84.53
2022-11-09T03:53:01.851Z,84.64
2022-11-09T03:55:28.793Z,84.82
2022-11-09T03:57:55.311Z,84.93
2022-11-09T04:00:23.213Z,84.58
2022-11-09T04:02:50.331Z,84.48
2022-11-09T04:05:17.077Z,84.72
2022-11-09T04:07:49.061Z,84.82
2022-11-09T04:10:16.507Z,84.79
2022-11-09T04:12:43.392Z,84.76
2022-11-09T04:15:10.654Z,84.88
2022-11-09T04:17:37.065Z,84.65
2022-11-09T04:20:05.459Z,84.78
2022-11-09T04:22:31.991Z,84.91
2022-11-09T04:24:58.672Z,84.97
2022-11-09T04:27:25.990Z,84.77
2022-11-09T04:29:52.526Z,84.75
2022-11-09T04:32:19.001Z,84.80
2022-11-09T04:34:45.516Z,84.82
2022-11-09T04:37:12.111Z,85.02
2022-11-09T04:39:38.569Z,85.00
2022-11-09T04:42:05.932Z,84.90
2022-11-09T04:44:32.522Z,84.94
2022-11-09T04:46:58.918Z,84.92
2022-11-09T04:49:25.636Z,84.81
2022-11-09T04:51:52.126Z,84.85
2022-11-09T04:54:18.626Z,85.04
2022-11-09T04:56:45.662Z,85.06
2022-11-09T04:59:12.122Z,85.21
2022-11-09T05:01:38.511Z,85.33
2022-11-09T05:04:05.287Z,85.39
2022-11-09T05:06:31.938Z,85.53
2022-11-09T05:09:00.745Z,85.86
2022-11-09T05:11:27.546Z,85.80
2022-11-09T05:13:54.123Z,85.72
2022-11-09T05:16:20.980Z,85.60
2022-11-09T05:18:47.990Z,85.59
2022-11-09T05:21:15.027Z,85.42
2022-11-09T05:24:00.252Z,85.47
2022-11-09T05:26:33.181Z,85.48
2022-11-09T05:29:02.635Z,85.30
2022-11-09T05:31:30.273Z,85.51
2022-11-09T05:33:57.557Z,85.63
2022-11-09T05:36:25.426Z,85.65
2022-11-09T05:38:51.998Z,85.62
2022-11-09T05:41:18.504Z,85.61
2022-11-09T05:43:45.724Z,85.52
2022-11-09T05:46:14.362Z,85.43
2022-11-09T05:48:41.880Z,85.48
2022-11-09T05:51:10.827Z,85.47
2022-11-09T05:53:41.128Z,85.57
2022-11-09T05:56:12.647Z,85.65
2022-11-09T05:58:40.739Z,85.53
2022-11-09T06:01:11.241Z,85.65
2022-11-09T06:03:38.064Z,85.83
2022-11-09T06:06:08.687Z,85.96
2022-11-09T06:08:37.117Z,86.10
2022-11-09T06:11:06.455Z,86.12
2022-11-09T06:13:33.674Z,85.93
2022-11-09T06:16:01.872Z,86.14
2022-11-09T06:18:30.804Z,86.23
2022-11-09T06:20:59.411Z,86.25
2022-11-09T06:23:26.613Z,86.20
2022-11-09T06:25:56.437Z,86.02
2022-11-09T06:28:22.969Z,86.19
2022-11-09T06:30:49.538Z,86.27
2022-11-09T06:33:16.084Z,86.43
2022-11-09T06:35:42.583Z,86.40
2022-11-09T06:38:10.900Z,86.40
2022-11-09T06:40:38.773Z,86.34
2022-11-09T06:43:05.582Z,86.39
2022-11-09T06:45:32.810Z,86.52
2022-11-09T06:48:01.663Z,86.46
2022-11-09T06:50:31.229Z,86.38
2022-11-09T06:52:59.319Z,86.23
2022-11-09T06:55:26.683Z,86.37
2022-11-09T06:57:53.297Z,86.48
2022-11-09T07:00:20.653Z,86.61
2022-11-09T07:02:47.354Z,86.58
2022-11-09T07:05:14.035Z,86.62
2022-11-09T07:07:40.602Z,86.51
2022-11-09T07:10:07.670Z,86.28
2022-11-09T07:12:35.128Z,86.25
2022-11-09T07:15:03.167Z,86.12
2022-11-09T07:17:34.305Z,86.20
2022-11-09T07:20:01.081Z,86.09
2022-11-09T07:22:27.719Z,86.19
2022-11-09T07:24:55.266Z,86.21
2022-11-09T07:27:27.358Z,86.06
2022-11-09T07:29:54.932Z,85.98
2022-11-09T07:32:27.361Z,85.94
2022-11-09T07:35:09.126Z,85.75
2022-11-09T07:37:36.328Z,85.60
2022-11-09T07:40:03.472Z,85.62
2022-11-09T07:42:30.729Z,85.60
2022-11-09T07:44:57.215Z,85.42
2022-11-09T07:47:23.661Z,85.36
2022-11-09T07:49:50.270Z,85.40
2022-11-09T07:52:16.834Z,85.21
2022-11-09T07:54:46.059Z,85.13
2022-11-09T07:57:15.110Z,85.05
2022-11-09T07:59:41.811Z,85.01
2022-11-09T08:02:10.008Z,84.98
2022-11-09T08:04:36.722Z,84.80
2022-11-09T08:07:03.540Z,84.67
2022-11-09T08:09:30.039Z,84.55
2022-11-09T08:11:56.653Z,84.44
2022-11-09T08:14:23.214Z,84.31
2022-11-09T08:16:49.657Z,84.14
2022-11-09T08:19:16.335Z,83.99
2022-11-09T08:21:43.012Z,83.94
2022-11-09T08:24:09.941Z,83.91
2022-11-09T08:26:36.782Z,83.96
2022-11-09T08:29:03.410Z,84.28
2022-11-09T08:31:30.499Z,84.16
2022-11-09T08:33:57.464Z,83.75
2022-11-09T08:36:28.082Z,83.54
2022-11-09T08:38:54.663Z,83.65
2022-11-09T08:41:21.328Z,83.36
2022-11-09T08:43:47.878Z,82.69
2022-11-09T08:46:14.458Z,82.45
2022-11-09T08:48:41.150Z,82.74
2022-11-09T08:51:07.688Z,82.23
2022-11-09T08:53:34.342Z,82.27
2022-11-09T08:56:01.282Z,82.50
2022-11-09T08:58:27.865Z,82.35
2022-11-09T09:00:55.023Z,81.29
2022-11-09T09:03:21.632Z,81.26
2022-11-09T09:05:48.289Z,81.50
2022-11-09T09:08:15.190Z,80.32
2022-11-09T09:10:42.437Z,80.35
2022-11-09T09:13:10.005Z,80.08
2022-11-09T09:15:36.517Z,79.96
2022-11-09T09:18:03.678Z,79.79
2022-11-09T09:20:30.977Z,79.80
2022-11-09T09:22:59.397Z,79.30
2022-11-09T09:25:26.792Z,78.88
2022-11-09T09:27:53.367Z,79.22
2022-11-09T09:30:19.880Z,79.70
2022-11-09T09:32:46.396Z,79.32
2022-11-09T09:35:13.025Z,79.19
2022-11-09T09:37:39.644Z,79.13
2022-11-09T09:40:07.077Z,78.94
2022-11-09T09:42:42.963Z,78.84
2022-11-09T09:45:22.949Z,79.48
2022-11-09T09:48:19.381Z,79.44
2022-11-09T09:50:53.309Z,79.09
2022-11-09T09:53:40.379Z,78.52
2022-11-09T09:56:28.282Z,79.04
2022-11-09T09:59:10.403Z,78.59
2022-11-09T10:01:39.913Z,78.10
2022-11-09T10:04:22.100Z,77.45
2022-11-09T10:07:01.080Z,78.29
2022-11-09T10:09:39.908Z,77.68
2022-11-09T10:12:24.119Z,78.45
2022-11-09T10:15:05.993Z,78.51
2022-11-09T10:17:42.382Z,77.96
2022-11-09T10:20:23.868Z,78.32
2022-11-09T10:23:43.434Z,77.96
2022-11-09T10:26:21.142Z,78.36
2022-11-09T10:29:15.224Z,78.57
2022-11-09T10:31:43.477Z,77.48
2022-11-09T10:34:17.965Z,77.71
2022-11-09T10:37:01.036Z,77.83
2022-11-09T10:39:38.651Z,78.29
2022-11-09T10:42:23.991Z,76.88
2022-11-09T10:45:28.729Z,76.70
2022-11-09T10:48:14.522Z,77.15
2022-11-09T10:51:00.624Z,76.32
2022-11-09T10:53:45.967Z,75.87
2022-11-09T10:59:56.923Z,77.04
2022-11-09T11:02:44.674Z,76.50
2022-11-09T11:05:31.945Z,76.21
2022-11-09T11:08:31.161Z,76.40
2022-11-09T11:11:37.074Z,76.91
2022-11-09T11:14:33.335Z,75.77
2022-11-09T11:17:25.816Z,76.76
2022-11-09T11:20:25.498Z,76.12
2022-11-09T11:23:24.272Z,74.76
2022-11-09T11:26:18.895Z,74.96
2022-11-09T11:29:20.971Z,74.51
2022-11-09T11:32:16.293Z,75.76
2022-11-09T11:35:05.753Z,75.43
2022-11-09T11:38:35.560Z,75.50
2022-11-09T11:41:36.186Z,75.51
2022-11-09T11:44:35.854Z,75.76
2022-11-09T11:47:30.789Z,75.04
2022-11-09T11:50:49.468Z,73.70
2022-11-09T11:53:47.139Z,74.81
2022-11-09T11:57:25.068Z,73.94
2022-11-09T12:00:16.293Z,74.66
2022-11-09T12:03:18.172Z,73.63
2022-11-09T12:06:13.679Z,72.59
2022-11-09T12:09:11.021Z,72.40
2022-11-09T12:12:14.784Z,74.18
2022-11-09T12:15:03.032Z,74.32
2022-11-09T12:17:51.931Z,73.66
2022-11-09T12:21:04.278Z,71.91
2022-11-09T12:24:06.862Z,73.01
2022-11-09T12:27:31.066Z,73.35
2022-11-09T12:30:17.456Z,72.71
2022-11-09T12:33:11.319Z,72.88
2022-11-09T12:36:03.291Z,71.86
2022-11-09T12:38:55.146Z,72.43
2022-11-09T12:41:42.614Z,72.57
2022-11-09T12:44:44.486Z,72.02
2022-11-09T12:47:44.567Z,72.44
2022-11-09T12:50:31.746Z,72.91
2022-11-09T12:53:19.604Z,71.88
2022-11-09T12:56:16.842Z,72.33
2022-11-09T12:59:33.938Z,72.15
2022-11-09T13:02:24.455Z,72.14
2022-11-09T13:05:31.300Z,73.18
2022-11-09T13:08:28.575Z,73.40
2022-11-09T13:11:28.076Z,73.14
2022-11-09T13:14:22.429Z,72.88
2022-11-09T13:17:23.510Z,72.96
2022-11-09T13:20:55.542Z,73.54
2022-11-09T13:24:00.975Z,72.70
2022-11-09T13:26:47.689Z,73.34
2022-11-09T13:29:38.916Z,73.17
2022-11-09T13:32:28.886Z,73.86
2022-11-09T13:35:58.635Z,74.23
2022-11-09T13:38:44.766Z,73.94
2022-11-09T13:41:31.271Z,74.27
2022-11-09T13:44:18.553Z,74.33
2022-11-09T13:47:04.417Z,74.23
2022-11-09T13:49:51.053Z,74.60
2022-11-09T13:52:49.254Z,74.95
2022-11-09T13:55:37.692Z,74.97
2022-11-09T13:58:31.613Z,74.85
2022-11-09T14:01:48.008Z,74.85
2022-11-09T14:04:38.643Z,74.90
2022-11-09T14:07:27.456Z,75.13
2022-11-09T14:10:26.702Z,75.05
2022-11-09T14:13:41.932Z,75.02
2022-11-09T14:16:39.203Z,75.14
2022-11-09T14:19:30.486Z,75.26
2022-11-09T14:22:19.218Z,75.16
2022-11-09T14:25:15.838Z,75.15
2022-11-09T14:28:01.739Z,75.28
2022-11-09T14:30:46.988Z,75.48
2022-11-09T14:33:35.008Z,75.60
2022-11-09T14:36:20.670Z,75.76
2022-11-09T14:39:21.577Z,75.93
2022-11-09T14:42:07.643Z,75.83
2022-11-09T14:44:53.248Z,75.97
2022-11-09T14:47:38.971Z,76.16
2022-11-09T14:50:25.851Z,76.25
2022-11-09T14:53:25.097Z,76.23
2022-11-09T14:56:14.810Z,76.32
2022-11-09T14:59:03.765Z,76.45
2022-11-09T15:01:58.177Z,76.52
2022-11-09T15:05:04.747Z,76.64
2022-11-09T15:07:51.097Z,76.80
2022-11-09T15:10:42.244Z,76.84
2022-11-09T15:13:35.010Z,77.03
2022-11-09T15:16:27.973Z,77.19
2022-11-09T15:19:21.878Z,77.29
2022-11-09T15:22:36.526Z,77.32
2022-11-09T15:25:28.315Z,77.43
2022-11-09T15:28:13.222Z,77.46
2022-11-09T15:30:59.022Z,77.61
2022-11-09T15:33:53.058Z,77.69
2022-11-09T15:36:41.996Z,77.84
2022-11-09T15:39:30.516Z,78.00
2022-11-09T15:42:21.590Z,78.19
2022-11-09T15:45:07.605Z,78.32
2022-11-09T15:47:55.751Z,78.40
2022-11-09T15:50:41.104Z,78.54
2022-11-09T15:53:27.282Z,78.74
2022-11-09T15:56:22.135Z,78.85
2022-11-09T15:59:18.260Z,78.83
2022-11-09T16:02:03.482Z,78.98
2022-11-09T16:04:49.609Z,79.08
2022-11-09T16:07:35.093Z,79.06
2022-11-09T16:10:23.015Z,79.32
2022-11-09T16:13:09.731Z,79.58
2022-11-09T16:16:02.771Z,79.64
2022-11-09T16:18:48.299Z,79.63
2022-11-09T16:21:33.592Z,79.90
2022-11-09T16:24:19.286Z,79.86
2022-11-09T16:27:12.763Z,79.97
2022-11-09T16:30:08.988Z,79.64
2022-11-09T16:32:55.095Z,79.74
2022-11-09T16:35:41.782Z,79.60
2022-11-09T16:38:30.209Z,79.84
2022-11-09T16:41:17.052Z,80.09
2022-11-09T16:44:03.719Z,80.07
2022-11-09T16:46:51.452Z,80.13
2022-11-09T16:49:37.040Z,80.16
2022-11-09T16:52:22.720Z,80.24
2022-11-09T16:55:09.305Z,80.21
2022-11-09T16:57:54.862Z,80.32
2022-11-09T17:01:08.832Z,80.49
2022-11-09T17:03:50.438Z,80.47
2022-11-09T17:06:35.719Z,80.42
2022-11-09T17:09:21.359Z,80.49
2022-11-09T17:12:07.291Z,80.58
2022-11-09T17:14:54.850Z,80.48
2022-11-09T17:17:40.065Z,80.40
2022-11-09T17:20:25.741Z,80.40
2022-11-09T17:23:12.270Z,80.42
2022-11-09T17:26:00.501Z,80.62
2022-11-09T17:28:46.603Z,80.53
2022-11-09T17:31:33.311Z,80.48
2022-11-09T17:34:18.947Z,80.76
2022-11-09T17:37:05.712Z,80.69
2022-11-09T17:39:51.764Z,80.70
2022-11-09T17:42:37.268Z,80.69
2022-11-09T17:45:23.056Z,80.81
2022-11-09T17:48:08.640Z,80.97
2022-11-09T17:50:53.919Z,81.24
2022-11-09T17:53:39.676Z,81.54
2022-11-09T17:56:25.159Z,81.71
2022-11-09T17:59:10.853Z,81.64
2022-11-09T18:01:56.502Z,81.91
2022-11-09T18:04:41.756Z,82.21
2022-11-09T18:07:29.448Z,82.64
2022-11-09T18:10:15.395Z,82.66
2022-11-09T18:13:01.435Z,82.61
2022-11-09T18:15:46.909Z,82.98
2022-11-09T18:18:32.078Z,82.95
2022-11-09T18:21:18.989Z,83.31
2022-11-09T18:24:04.656Z,83.62
2022-11-09T18:26:49.961Z,83.40
2022-11-09T18:29:35.076Z,83.50
2022-11-09T18:32:20.521Z,83.64
2022-11-09T18:35:07.453Z,83.79
2022-11-09T18:37:53.124Z,83.91
2022-11-09T18:40:38.901Z,83.97
2022-11-09T18:43:24.311Z,83.87
2022-11-09T18:46:12.463Z,83.88
2022-11-09T18:48:58.107Z,83.90
2022-11-09T18:51:43.797Z,84.09
2022-11-09T18:54:29.344Z,84.19
2022-11-09T18:57:19.597Z,84.22
2022-11-09T19:00:06.061Z,84.18
2022-11-09T19:02:51.379Z,84.24
2022-11-09T19:05:47.028Z,84.29
2022-11-09T19:08:54.185Z,84.32
2022-11-09T19:11:40.199Z,84.32
2022-11-09T19:14:26.988Z,84.31
2022-11-09T19:17:14.820Z,84.22
2022-11-09T19:20:00.375Z,84.21
2022-11-09T19:22:47.531Z,84.19
2022-11-09T19:25:32.546Z,84.15
2022-11-09T19:28:18.318Z,84.08
2022-11-09T19:31:04.383Z,84.02
2022-11-09T19:33:50.692Z,83.88
2022-11-09T19:36:36.740Z,84.05
2022-11-09T19:39:22.361Z,83.99
2022-11-09T19:42:08.305Z,83.81
2022-11-09T19:44:56.616Z,83.79
2022-11-09T19:47:42.129Z,83.99
2022-11-09T19:50:27.211Z,83.88
2022-11-09T19:53:13.146Z,83.95
2022-11-09T19:56:11.021Z,84.29
2022-11-09T19:58:59.753Z,84.12
2022-11-09T20:01:45.152Z,84.13
2022-11-09T20:04:32.483Z,84.10
2022-11-09T20:07:23.502Z,84.03
2022-11-09T20:10:09.165Z,84.04
2022-11-09T20:12:55.083Z,83.93
2022-11-09T20:15:43.669Z,83.76
2022-11-09T20:18:30.271Z,83.69
2022-11-09T20:21:15.468Z,83.90
2022-11-09T20:24:00.993Z,83.97
2022-11-09T20:26:46.582Z,84.10
2022-11-09T20:29:32.321Z,84.08
2022-11-09T20:32:21.478Z,84.07
2022-11-09T20:35:07.744Z,83.98
2022-11-09T20:37:52.979Z,83.99
2022-11-09T20:40:38.678Z,84.26
2022-11-09T20:43:24.496Z,84.32
2022-11-09T20:46:16.215Z,84.17
2022-11-09T20:49:02.144Z,84.09
2022-11-09T20:51:48.287Z,84.04
2022-11-09T20:54:33.727Z,84.25
2022-11-09T20:57:19.537Z,84.12
2022-11-09T21:00:06.046Z,84.26
2022-11-09T21:02:51.922Z,84.35
2022-11-09T21:05:45.369Z,84.37
2022-11-09T21:08:34.071Z,84.37
2022-11-09T21:11:20.273Z,84.34
2022-11-09T21:14:06.006Z,84.44
2022-11-09T21:16:51.937Z,84.58
2022-11-09T21:19:37.625Z,84.50
2022-11-09T21:22:43.063Z,84.41
2022-11-09T21:25:47.326Z,84.45
2022-11-09T21:28:51.753Z,84.45
2022-11-09T21:31:37.619Z,84.20
2022-11-09T21:34:23.302Z,84.25
2022-11-09T21:37:09.022Z,84.18
2022-11-09T21:39:54.107Z,84.27
2022-11-09T21:42:39.420Z,84.18
2022-11-09T21:45:24.632Z,84.36
2022-11-09T21:48:09.928Z,84.19
2022-11-09T21:51:04.738Z,84.10
2022-11-09T21:53:50.754Z,84.14
2022-11-09T21:56:36.412Z,84.14
2022-11-09T21:59:22.208Z,84.15
2022-11-09T22:02:09.775Z,83.86
2022-11-09T22:04:54.987Z,83.87
2022-11-09T22:07:40.350Z,84.02
2022-11-09T22:10:26.143Z,83.96
2022-11-09T22:13:39.595Z,83.86
2022-11-09T22:16:26.485Z,83.79
2022-11-09T22:19:30.476Z,83.82
2022-11-09T22:22:16.293Z,83.86
2022-11-09T22:25:02.993Z,84.14
2022-11-09T22:27:48.168Z,84.03
2022-11-09T22:30:33.465Z,83.98
2022-11-09T22:33:24.302Z,83.96
2022-11-09T22:36:13.820Z,84.02
2022-11-09T22:38:59.200Z,83.87
2022-11-09T22:41:44.257Z,83.77
2022-11-09T22:44:29.604Z,83.89
2022-11-09T22:47:15.175Z,83.86
2022-11-09T22:50:01.018Z,83.95
2022-11-09T22:52:46.765Z,84.06
2022-11-09T22:55:36.289Z,84.26
2022-11-09T22:58:22.113Z,84.64
2022-11-09T23:01:11.327Z,84.84
2022-11-09T23:03:56.865Z,84.86
2022-11-09T23:06:42.123Z,84.82
2022-11-09T23:09:27.500Z,85.00
2022-11-09T23:12:12.846Z,84.99
2022-11-09T23:15:04.066Z,85.10
2022-11-09T23:18:11.442Z,85.16
2022-11-09T23:21:00.057Z,85.08
2022-11-09T23:23:45.519Z,84.91
2022-11-09T23:26:32.699Z,85.01
2022-11-09T23:29:17.830Z,84.99
2022-11-09T23:32:03.564Z,85.00
2022-11-09T23:34:48.712Z,84.90
2022-11-09T23:37:34.633Z,84.94
2022-11-09T23:40:20.236Z,84.99
2022-11-09T23:43:11.593Z,85.07
2022-11-09T23:46:01.999Z,85.28
2022-11-09T23:48:48.192Z,85.41
2022-11-09T23:51:33.707Z,85.58
2022-11-09T23:54:19.115Z,85.75
2022-11-09T23:57:04.526Z,86.02
2022-11-09T23:59:49.640Z,86.14
